createdAt,value
2022-08-27T00:02:21.337Z,6.78
2022-08-27T00:04:50.127Z,7.03
2022-08-27T00:07:18.916Z,7.03
2022-08-27T00:09:47.634Z,6.57
2022-08-27T00:12:17.827Z,6.95
2022-08-27T00:14:46.617Z,6.80
2022-08-27T00:17:15.850Z,6.88
2022-08-27T00:19:44.719Z,7.18
2022-08-27T00:22:13.639Z,7.20
2022-08-27T00:24:48.636Z,6.90
2022-08-27T00:27:19.547Z,7.47
2022-08-27T00:29:48.026Z,6.95
2022-08-27T00:32:17.516Z,7.45
2022-08-27T00:34:46.148Z,7.07
2022-08-27T00:37:15.013Z,7.25
2022-08-27T00:39:43.438Z,6.78
2022-08-27T00:42:12.374Z,7.20
2022-08-27T00:44:42.030Z,7.00
2022-08-27T00:47:16.209Z,6.75
2022-08-27T00:49:49.128Z,7.40
2022-08-27T00:52:26.040Z,6.78
2022-08-27T00:54:59.850Z,6.63
2022-08-27T00:57:28.696Z,7.13
2022-08-27T00:59:58.501Z,6.88
2022-08-27T01:02:30.638Z,7.57
2022-08-27T01:05:04.248Z,7.43
2022-08-27T01:07:37.106Z,7.53
2022-08-27T01:10:11.819Z,7.75
2022-08-27T01:12:40.797Z,7.63
2022-08-27T01:15:16.923Z,7.28
2022-08-27T01:17:49.910Z,7.68
2022-08-27T01:20:24.236Z,7.07
2022-08-27T01:23:02.910Z,7.38
2022-08-27T01:25:34.010Z,7.53
2022-08-27T01:28:05.907Z,7.75
2022-08-27T01:30:35.054Z,8.00
2022-08-27T01:33:10.942Z,7.88
2022-08-27T01:35:40.425Z,8.48
2022-08-27T01:38:18.989Z,8.48
2022-08-27T01:41:00.491Z,8.75
2022-08-27T01:43:31.151Z,8.10
2022-08-27T01:46:00.681Z,8.18
2022-08-27T01:48:29.074Z,8.13
2022-08-27T01:50:57.630Z,8.15
2022-08-27T01:53:27.611Z,7.57
2022-08-27T01:55:57.250Z,7.55
2022-08-27T01:58:30.512Z,7.25
2022-08-27T02:01:03.565Z,7.25
2022-08-27T02:03:32.616Z,7.05
2022-08-27T02:06:06.075Z,6.97
2022-08-27T02:08:34.877Z,7.07
2022-08-27T02:11:08.162Z,6.57
2022-08-27T02:13:39.229Z,6.93
2022-08-27T02:16:07.690Z,6.80
2022-08-27T02:18:38.502Z,6.63
2022-08-27T02:21:10.447Z,7.20
2022-08-27T02:23:39.721Z,6.95
2022-08-27T02:26:08.213Z,6.78
2022-08-27T02:28:38.347Z,5.80
2022-08-27T02:31:07.469Z,6.88
2022-08-27T02:33:36.027Z,6.75
2022-08-27T02:36:06.118Z,7.22
2022-08-27T02:38:35.224Z,8.07
2022-08-27T02:41:03.543Z,6.72
2022-08-27T02:43:32.595Z,7.18
2022-08-27T02:46:05.807Z,7.30
2022-08-27T02:48:37.460Z,7.10
2022-08-27T02:51:07.050Z,7.35
2022-08-27T02:53:38.508Z,7.43
2022-08-27T02:56:09.578Z,7.32
2022-08-27T02:58:39.079Z,7.50
2022-08-27T03:01:11.216Z,6.78
2022-08-27T03:03:42.272Z,7.10
2022-08-27T03:06:10.542Z,7.63
2022-08-27T03:08:53.343Z,7.30
2022-08-27T03:11:24.051Z,7.07
2022-08-27T03:13:52.943Z,6.57
2022-08-27T03:16:23.210Z,7.03
2022-08-27T03:18:51.570Z,6.65
2022-08-27T03:21:22.413Z,6.55
2022-08-27T03:23:51.051Z,6.70
2022-08-27T03:26:20.989Z,6.75
2022-08-27T03:28:49.303Z,6.30
2022-08-27T03:31:26.862Z,6.80
2022-08-27T03:34:01.656Z,6.32
2022-08-27T03:36:32.041Z,6.47
2022-08-27T03:39:00.503Z,5.90
2022-08-27T03:41:43.814Z,5.95
2022-08-27T03:44:21.803Z,6.00
2022-08-27T03:46:50.956Z,5.63
2022-08-27T03:49:22.947Z,5.90
2022-08-27T03:51:54.118Z,6.32
2022-08-27T03:54:22.812Z,5.50
2022-08-27T03:56:51.438Z,6.47
2022-08-27T03:59:20.212Z,7.00
2022-08-27T04:01:48.925Z,6.20
2022-08-27T04:04:17.333Z,6.63
2022-08-27T04:06:47.357Z,6.97
2022-08-27T04:09:16.046Z,6.63
2022-08-27T04:11:45.559Z,7.13
2022-08-27T04:14:25.390Z,6.95
2022-08-27T04:16:56.370Z,6.50
2022-08-27T04:19:27.959Z,6.80
2022-08-27T04:22:02.599Z,6.10
2022-08-27T04:24:33.645Z,6.90
2022-08-27T04:27:02.840Z,6.93
2022-08-27T04:29:31.832Z,6.60
2022-08-27T04:32:01.234Z,6.65
2022-08-27T04:34:30.102Z,6.38
2022-08-27T04:37:00.942Z,6.85
2022-08-27T04:39:31.310Z,7.20
2022-08-27T04:42:01.783Z,6.68
2022-08-27T04:44:33.714Z,6.65
2022-08-27T04:47:05.858Z,6.30
2022-08-27T04:49:34.940Z,6.80
2022-08-27T04:52:06.142Z,7.25
2022-08-27T04:54:35.981Z,6.90
2022-08-27T04:57:07.174Z,7.03
2022-08-27T04:59:36.860Z,7.05
2022-08-27T05:02:09.424Z,6.90
2022-08-27T05:04:41.059Z,6.78
2022-08-27T05:07:11.982Z,7.30
2022-08-27T05:09:40.209Z,6.85
2022-08-27T05:12:09.398Z,7.38
2022-08-27T05:14:38.386Z,8.02
2022-08-27T05:17:06.821Z,7.82
2022-08-27T05:19:35.158Z,7.93
2022-08-27T05:22:03.431Z,8.13
2022-08-27T05:24:33.391Z,7.38
2022-08-27T05:27:01.645Z,8.05
2022-08-27T05:29:31.618Z,7.95
2022-08-27T05:32:00.065Z,8.50
2022-08-27T05:34:29.876Z,7.55
2022-08-27T05:36:58.805Z,7.78
2022-08-27T05:39:27.046Z,7.57
2022-08-27T05:41:59.355Z,8.30
2022-08-27T05:44:42.975Z,8.40
2022-08-27T05:47:12.112Z,7.72
2022-08-27T05:49:40.427Z,7.40
2022-08-27T05:52:13.511Z,7.38
2022-08-27T05:54:42.219Z,8.02
2022-08-27T05:57:12.433Z,7.45
2022-08-27T05:59:58.190Z,6.97
2022-08-27T06:02:26.790Z,6.90
2022-08-27T06:04:55.567Z,7.63
2022-08-27T06:07:24.036Z,6.65
2022-08-27T06:09:52.290Z,6.70
2022-08-27T06:12:28.306Z,6.68
2022-08-27T06:14:57.586Z,7.18
2022-08-27T06:17:26.277Z,6.50
2022-08-27T06:19:54.627Z,6.53
2022-08-27T06:22:23.033Z,6.75
2022-08-27T06:24:51.555Z,6.88
2022-08-27T06:27:22.172Z,6.40
2022-08-27T06:29:50.397Z,6.57
2022-08-27T06:32:19.438Z,7.05
2022-08-27T06:34:48.675Z,6.82
2022-08-27T06:37:16.968Z,6.40
2022-08-27T06:39:45.822Z,6.53
2022-08-27T06:42:14.885Z,6.35
2022-08-27T06:44:44.537Z,5.47
2022-08-27T06:47:13.070Z,6.38
2022-08-27T06:49:46.188Z,6.10
2022-08-27T06:52:16.662Z,5.88
2022-08-27T06:54:45.809Z,6.32
2022-08-27T06:57:14.436Z,5.22
2022-08-27T06:59:44.557Z,5.30
2022-08-27T07:02:12.962Z,6.07
2022-08-27T07:04:41.314Z,5.78
2022-08-27T07:07:13.713Z,5.93
2022-08-27T07:09:41.973Z,5.70
2022-08-27T07:12:10.336Z,5.70
2022-08-27T07:14:38.983Z,5.95
2022-08-27T07:17:11.336Z,5.70
2022-08-27T07:19:44.670Z,6.28
2022-08-27T07:22:13.949Z,5.22
2022-08-27T07:24:42.439Z,5.07
2022-08-27T07:27:11.506Z,5.75
2022-08-27T07:29:40.138Z,5.45
2022-08-27T07:32:10.129Z,5.80
2022-08-27T07:34:38.406Z,5.20
2022-08-27T07:37:07.021Z,5.38
2022-08-27T07:39:35.455Z,5.45
2022-08-27T07:42:21.114Z,5.40
2022-08-27T07:44:49.953Z,5.05
2022-08-27T07:47:19.930Z,5.60
2022-08-27T07:49:48.686Z,5.13
2022-08-27T07:52:17.546Z,4.97
2022-08-27T07:54:45.947Z,4.90
2022-08-27T07:57:14.673Z,4.43
2022-08-27T07:59:42.915Z,4.72
2022-08-27T08:02:12.818Z,5.18
2022-08-27T08:04:42.468Z,4.50
2022-08-27T08:07:10.778Z,4.47
2022-08-27T08:09:39.608Z,4.80
2022-08-27T08:12:08.324Z,4.63
2022-08-27T08:14:37.544Z,4.80
2022-08-27T08:17:10.344Z,4.70
2022-08-27T08:19:40.362Z,4.72
2022-08-27T08:22:10.439Z,4.30
2022-08-27T08:24:39.027Z,4.53
2022-08-27T08:27:08.046Z,4.18
2022-08-27T08:29:38.023Z,4.30
2022-08-27T08:32:08.468Z,4.20
2022-08-27T08:34:37.472Z,4.03
2022-08-27T08:37:07.373Z,4.47
2022-08-27T08:39:38.480Z,4.55
2022-08-27T08:42:22.204Z,4.18
2022-08-27T08:44:53.942Z,4.68
2022-08-27T08:47:28.414Z,5.25
2022-08-27T08:50:09.220Z,5.40
2022-08-27T08:52:53.271Z,5.18
2022-08-27T08:55:43.741Z,4.90
2022-08-27T08:58:31.260Z,5.10
2022-08-27T09:01:02.070Z,4.88
2022-08-27T09:03:36.362Z,5.20
2022-08-27T09:06:15.519Z,5.07
2022-08-27T09:08:45.586Z,5.20
2022-08-27T09:11:28.896Z,5.50
2022-08-27T09:14:02.947Z,5.28
2022-08-27T09:16:32.434Z,4.95
2022-08-27T09:19:05.991Z,5.30
2022-08-27T09:21:46.416Z,5.15
2022-08-27T09:24:24.740Z,5.30
2022-08-27T09:26:55.321Z,6.00
2022-08-27T09:29:29.980Z,5.60
2022-08-27T09:32:02.206Z,6.03
2022-08-27T09:34:38.636Z,5.90
2022-08-27T09:37:15.682Z,6.28
2022-08-27T09:39:53.785Z,4.97
2022-08-27T09:42:37.447Z,5.75
2022-08-27T09:45:11.913Z,6.20
2022-08-27T09:47:46.664Z,6.78
2022-08-27T09:50:19.892Z,6.63
2022-08-27T09:52:55.308Z,6.50
2022-08-27T09:55:46.190Z,6.80
2022-08-27T09:58:22.881Z,6.15
2022-08-27T10:01:02.435Z,6.35
2022-08-27T10:03:33.419Z,7.47
2022-08-27T10:06:02.453Z,8.10
2022-08-27T10:08:41.908Z,11.13
2022-08-27T10:11:19.500Z,10.43
2022-08-27T10:14:01.312Z,3.83
2022-08-27T10:17:07.734Z,7.70
2022-08-27T10:19:47.494Z,5.60
2022-08-27T10:22:36.193Z,6.50
2022-08-27T10:25:30.016Z,7.97
2022-08-27T10:28:06.796Z,6.57
2022-08-27T10:31:11.530Z,8.32
2022-08-27T10:34:01.476Z,7.57
2022-08-27T10:36:49.192Z,7.63
2022-08-27T10:39:41.396Z,8.05
2022-08-27T10:42:26.294Z,7.57
2022-08-27T10:45:31.066Z,8.63
2022-08-27T10:48:18.176Z,9.57
2022-08-27T10:50:54.592Z,10.80
2022-08-27T10:53:37.472Z,14.32
2022-08-27T10:56:15.530Z,16.90
2022-08-27T10:59:02.893Z,19.17
2022-08-27T11:01:48.619Z,22.52
2022-08-27T11:04:26.152Z,23.20
2022-08-27T11:07:01.325Z,11.63
2022-08-27T11:09:41.205Z,9.95
2022-08-27T11:12:15.357Z,10.27
2022-08-27T11:14:53.482Z,11.55
2022-08-27T11:17:34.758Z,11.90
2022-08-27T11:20:13.155Z,19.02
2022-08-27T11:22:47.196Z,20.67
2022-08-27T11:25:36.795Z,19.08
2022-08-27T11:28:08.610Z,19.50
2022-08-27T11:30:53.406Z,19.77
2022-08-27T11:33:30.212Z,22.17
2022-08-27T11:36:31.626Z,23.98
2022-08-27T11:39:06.056Z,25.40
2022-08-27T11:42:01.539Z,25.85
2022-08-27T11:44:30.825Z,23.08
2022-08-27T11:47:15.168Z,24.77
2022-08-27T11:49:48.722Z,26.13
2022-08-27T11:52:29.253Z,27.60
2022-08-27T11:55:14.549Z,25.55
2022-08-27T11:57:45.100Z,22.50
2022-08-27T12:00:21.400Z,21.27
2022-08-27T12:03:00.422Z,21.33
2022-08-27T12:05:42.697Z,20.00
2022-08-27T12:08:29.342Z,20.23
2022-08-27T12:11:29.162Z,20.77
2022-08-27T12:14:12.350Z,19.80
2022-08-27T12:16:56.118Z,19.95
2022-08-27T12:19:43.662Z,18.52
2022-08-27T12:23:03.745Z,18.77
2022-08-27T12:25:33.824Z,21.25
2022-08-27T12:28:05.383Z,18.02
2022-08-27T12:30:38.243Z,17.27
2022-08-27T12:33:16.213Z,17.73
2022-08-27T12:35:49.372Z,17.48
2022-08-27T12:38:25.021Z,16.55
2022-08-27T12:41:00.256Z,16.02
2022-08-27T12:43:33.655Z,16.30
2022-08-27T12:46:07.921Z,16.60
2022-08-27T12:48:42.604Z,16.70
2022-08-27T12:51:17.244Z,16.38
2022-08-27T12:53:52.535Z,15.95
2022-08-27T12:56:51.055Z,15.85
2022-08-27T13:00:04.288Z,16.58
2022-08-27T13:03:16.383Z,16.48
2022-08-27T13:05:51.623Z,17.48
2022-08-27T13:08:24.347Z,15.35
2022-08-27T13:10:52.647Z,17.65
2022-08-27T13:13:25.613Z,16.27
2022-08-27T13:16:06.368Z,17.02
2022-08-27T13:18:36.707Z,17.15
2022-08-27T13:21:16.651Z,16.90
2022-08-27T13:23:59.328Z,16.58
2022-08-27T13:26:31.502Z,16.67
2022-08-27T13:29:03.679Z,15.55
2022-08-27T13:31:34.328Z,15.40
2022-08-27T13:34:06.984Z,14.75
2022-08-27T13:36:52.489Z,13.43
2022-08-27T13:39:21.234Z,13.60
2022-08-27T13:41:50.228Z,13.75
2022-08-27T13:44:27.733Z,12.25
2022-08-27T13:47:04.314Z,14.10
2022-08-27T13:49:40.229Z,12.95
2022-08-27T13:52:24.675Z,11.30
2022-08-27T13:55:09.400Z,12.10
2022-08-27T13:57:45.928Z,12.05
2022-08-27T14:00:24.451Z,11.27
2022-08-27T14:02:56.176Z,10.68
2022-08-27T14:05:36.825Z,11.35
2022-08-27T14:08:17.272Z,11.80
2022-08-27T14:10:50.504Z,10.63
2022-08-27T14:13:24.913Z,12.15
2022-08-27T14:15:56.981Z,12.98
2022-08-27T14:18:42.502Z,13.30
2022-08-27T14:21:16.996Z,12.82
2022-08-27T14:23:45.798Z,12.43
2022-08-27T14:26:17.347Z,12.50
2022-08-27T14:28:46.323Z,11.52
2022-08-27T14:31:16.659Z,10.30
2022-08-27T14:33:46.449Z,9.38
2022-08-27T14:36:16.094Z,9.40
2022-08-27T14:38:48.005Z,9.80
2022-08-27T14:41:21.457Z,9.07
2022-08-27T14:43:50.314Z,9.43
2022-08-27T14:46:29.836Z,10.50
2022-08-27T14:49:01.867Z,9.25
2022-08-27T14:51:34.227Z,8.80
2022-08-27T14:54:03.076Z,8.88
2022-08-27T14:56:31.775Z,8.95
2022-08-27T14:59:00.362Z,8.32
2022-08-27T15:01:30.620Z,9.13
2022-08-27T15:03:59.577Z,9.27
2022-08-27T15:06:28.159Z,8.68
2022-08-27T15:08:56.434Z,9.27
2022-08-27T15:11:28.541Z,9.30
2022-08-27T15:13:59.561Z,9.35
2022-08-27T15:16:32.485Z,9.13
2022-08-27T15:19:01.570Z,9.05
2022-08-27T15:21:31.737Z,9.23
2022-08-27T15:24:04.197Z,8.65
2022-08-27T15:26:33.224Z,7.97
2022-08-27T15:29:06.189Z,7.63
2022-08-27T15:31:36.671Z,7.53
2022-08-27T15:34:05.107Z,7.30
2022-08-27T15:36:33.463Z,7.45
2022-08-27T15:39:01.884Z,7.50
2022-08-27T15:41:32.327Z,7.70
2022-08-27T15:44:02.464Z,7.63
2022-08-27T15:46:31.464Z,7.45
2022-08-27T15:49:01.288Z,7.13
2022-08-27T15:51:34.369Z,7.20
2022-08-27T15:54:02.880Z,7.28
2022-08-27T15:56:34.480Z,7.28
2022-08-27T15:59:03.155Z,7.32
2022-08-27T16:01:36.581Z,7.57
2022-08-27T16:04:07.925Z,6.88
2022-08-27T16:06:36.947Z,7.57
2022-08-27T16:09:06.807Z,7.50
2022-08-27T16:11:35.424Z,6.93
2022-08-27T16:14:03.993Z,7.22
2022-08-27T16:16:34.044Z,7.75
2022-08-27T16:19:05.688Z,7.63
2022-08-27T16:21:36.710Z,7.88
2022-08-27T16:24:09.397Z,7.63
2022-08-27T16:26:40.124Z,7.95
2022-08-27T16:29:09.065Z,7.68
2022-08-27T16:31:38.794Z,8.27
2022-08-27T16:34:16.234Z,8.63
2022-08-27T16:36:46.970Z,8.50
2022-08-27T16:39:15.217Z,8.60
2022-08-27T16:41:43.564Z,8.93
2022-08-27T16:44:13.428Z,14.20
2022-08-27T16:46:41.870Z,9.93
2022-08-27T16:49:27.986Z,12.95
2022-08-27T16:51:57.704Z,11.43
2022-08-27T16:54:26.492Z,12.02
2022-08-27T16:56:55.032Z,11.82
2022-08-27T16:59:23.687Z,11.40
2022-08-27T17:01:55.409Z,11.65
2022-08-27T17:04:31.238Z,12.30
2022-08-27T17:07:05.617Z,9.90
2022-08-27T17:09:34.917Z,8.98
2022-08-27T17:12:05.667Z,9.05
2022-08-27T17:14:37.967Z,9.98
2022-08-27T17:17:09.497Z,10.60
2022-08-27T17:19:37.940Z,8.80
2022-08-27T17:22:09.509Z,8.45
2022-08-27T17:24:38.476Z,8.48
2022-08-27T17:27:07.139Z,7.78
2022-08-27T17:29:36.756Z,8.60
2022-08-27T17:32:07.926Z,7.72
2022-08-27T17:34:37.104Z,8.18
2022-08-27T17:37:06.889Z,7.35
2022-08-27T17:39:35.266Z,7.70
2022-08-27T17:42:03.615Z,7.50
2022-08-27T17:44:35.965Z,7.72
2022-08-27T17:47:08.190Z,7.32
2022-08-27T17:49:37.034Z,7.68
2022-08-27T17:52:10.712Z,6.95
2022-08-27T17:54:42.253Z,7.10
2022-08-27T17:57:18.010Z,6.85
2022-08-27T17:59:47.489Z,6.80
2022-08-27T18:02:21.659Z,6.63
2022-08-27T18:04:50.652Z,5.85
2022-08-27T18:07:20.832Z,5.72
2022-08-27T18:09:50.417Z,6.18
2022-08-27T18:12:23.819Z,6.40
2022-08-27T18:15:03.867Z,6.68
2022-08-27T18:17:32.346Z,6.07
2022-08-27T18:20:01.241Z,6.07
2022-08-27T18:22:32.391Z,7.00
2022-08-27T18:25:08.693Z,7.15
2022-08-27T18:27:41.102Z,7.20
2022-08-27T18:30:12.273Z,6.50
2022-08-27T18:32:41.572Z,6.25
2022-08-27T18:35:17.100Z,5.88
2022-08-27T18:37:47.138Z,5.70
2022-08-27T18:40:19.459Z,5.82
2022-08-27T18:42:49.198Z,5.57
2022-08-27T18:45:23.133Z,5.38
2022-08-27T18:47:52.653Z,4.30
2022-08-27T18:50:21.541Z,4.75
2022-08-27T18:52:54.537Z,5.00
2022-08-27T18:55:28.002Z,5.05
2022-08-27T18:57:56.642Z,5.57
2022-08-27T19:00:25.254Z,5.38
2022-08-27T19:02:54.308Z,6.13
2022-08-27T19:05:27.424Z,7.15
2022-08-27T19:07:59.156Z,7.38
2022-08-27T19:10:28.164Z,7.22
2022-08-27T19:12:56.468Z,7.20
2022-08-27T19:15:24.794Z,7.32
2022-08-27T19:17:57.902Z,7.93
2022-08-27T19:20:27.482Z,7.85
2022-08-27T19:22:58.835Z,8.35
2022-08-27T19:25:29.568Z,9.00
2022-08-27T19:27:58.285Z,9.40
2022-08-27T19:30:26.665Z,8.45
2022-08-27T19:32:57.760Z,8.38
2022-08-27T19:35:26.613Z,8.77
2022-08-27T19:37:56.564Z,8.70
2022-08-27T19:40:26.061Z,7.40
2022-08-27T19:42:55.080Z,8.00
2022-08-27T19:45:24.371Z,7.95
2022-08-27T19:47:54.069Z,7.72
2022-08-27T19:50:24.449Z,7.45
2022-08-27T19:52:53.621Z,7.68
2022-08-27T19:55:23.453Z,8.00
2022-08-27T19:57:52.045Z,8.48
2022-08-27T20:00:24.985Z,8.13
2022-08-27T20:02:57.240Z,8.07
2022-08-27T20:05:25.604Z,7.50
2022-08-27T20:07:54.657Z,7.93
2022-08-27T20:10:36.072Z,8.48
2022-08-27T20:13:06.053Z,8.27
2022-08-27T20:15:35.541Z,8.27
2022-08-27T20:18:05.338Z,7.90
2022-08-27T20:20:35.008Z,8.15
2022-08-27T20:23:05.113Z,7.68
2022-08-27T20:25:37.215Z,7.45
2022-08-27T20:28:37.362Z,7.05
2022-08-27T20:30:57.434Z,6.97
2022-08-27T20:33:27.028Z,7.72
2022-08-27T20:35:56.809Z,7.03
2022-08-27T20:38:25.428Z,7.47
2022-08-27T20:40:55.278Z,7.30
2022-08-27T20:43:23.650Z,7.72
2022-08-27T20:45:52.092Z,6.78
2022-08-27T20:48:20.569Z,7.85
2022-08-27T20:50:49.091Z,7.70
2022-08-27T20:53:17.999Z,7.70
2022-08-27T20:55:46.514Z,8.68
2022-08-27T20:58:42.015Z,7.70
2022-08-27T21:01:11.348Z,8.40
2022-08-27T21:03:39.905Z,8.43
2022-08-27T21:06:08.986Z,7.88
2022-08-27T21:08:39.536Z,8.02
2022-08-27T21:11:12.880Z,8.55
2022-08-27T21:13:55.745Z,7.60
2022-08-27T21:16:25.578Z,8.55
2022-08-27T21:18:55.678Z,7.65
2022-08-27T21:21:24.702Z,8.50
2022-08-27T21:23:53.319Z,8.18
2022-08-27T21:26:23.047Z,8.38
2022-08-27T21:28:55.998Z,8.02
2022-08-27T21:31:25.558Z,9.43
2022-08-27T21:33:54.563Z,8.65
2022-08-27T21:36:23.654Z,8.65
2022-08-27T21:38:52.079Z,9.23
2022-08-27T21:41:20.685Z,8.73
2022-08-27T21:43:49.141Z,8.65
2022-08-27T21:46:20.541Z,9.00
2022-08-27T21:48:58.545Z,9.10
2022-08-27T21:51:27.942Z,8.73
2022-08-27T21:53:56.321Z,9.30
2022-08-27T21:56:24.656Z,9.48
2022-08-27T21:58:53.144Z,10.10
2022-08-27T22:01:23.096Z,9.80
2022-08-27T22:03:51.684Z,9.52
2022-08-27T22:06:20.604Z,10.10
2022-08-27T22:08:49.129Z,10.50
2022-08-27T22:11:21.961Z,9.90
2022-08-27T22:13:52.334Z,9.48
2022-08-27T22:16:22.139Z,9.93
2022-08-27T22:18:54.689Z,9.35
2022-08-27T22:21:23.918Z,9.65
2022-08-27T22:23:52.504Z,9.50
2022-08-27T22:26:22.085Z,9.70
2022-08-27T22:28:50.390Z,9.02
2022-08-27T22:31:19.539Z,8.50
2022-08-27T22:33:49.413Z,9.30
2022-08-27T22:36:17.849Z,9.30
2022-08-27T22:38:47.696Z,8.40
2022-08-27T22:41:18.229Z,9.52
2022-08-27T22:43:47.321Z,8.73
2022-08-27T22:46:15.880Z,8.70
2022-08-27T22:48:44.220Z,8.52
2022-08-27T22:51:13.940Z,8.30
2022-08-27T22:53:42.495Z,9.15
2022-08-27T22:56:10.816Z,9.20
2022-08-27T22:58:40.650Z,9.02
2022-08-27T23:01:14.767Z,9.00
2022-08-27T23:03:43.116Z,8.13
2022-08-27T23:06:12.886Z,8.65
2022-08-27T23:08:41.735Z,8.98
2022-08-27T23:11:10.077Z,9.25
2022-08-27T23:13:38.753Z,9.65
2022-08-27T23:16:09.113Z,10.10
2022-08-27T23:18:39.306Z,10.00
2022-08-27T23:21:08.061Z,10.45
2022-08-27T23:23:39.556Z,9.73
2022-08-27T23:26:25.687Z,9.90
2022-08-27T23:28:54.933Z,9.85
2022-08-27T23:31:23.675Z,10.48
2022-08-27T23:33:54.278Z,9.98
2022-08-27T23:36:23.248Z,10.27
2022-08-27T23:38:53.055Z,10.38
2022-08-27T23:41:21.676Z,9.88
2022-08-27T23:43:49.978Z,10.93
2022-08-27T23:46:18.361Z,10.85
2022-08-27T23:48:46.675Z,10.73
2022-08-27T23:51:15.007Z,10.90
2022-08-27T23:53:43.510Z,11.57
2022-08-27T23:56:13.373Z,11.02
2022-08-27T23:58:41.977Z,11.05
